createdAt,value
2023-10-23T00:02:07.135Z,100759.47
2023-10-23T00:05:10.036Z,100755.59
2023-10-23T00:08:12.938Z,100756.22
2023-10-23T00:11:25.966Z,100764.19
2023-10-23T00:14:28.908Z,100763.59
2023-10-23T00:17:31.784Z,100769.13
2023-10-23T00:20:34.435Z,100773.78
2023-10-23T00:23:37.226Z,100771.13
2023-10-23T00:26:39.884Z,100763.50
2023-10-23T00:29:42.616Z,100766.31
2023-10-23T00:32:46.062Z,100772.88
2023-10-23T00:35:49.456Z,100782.44
2023-10-23T00:38:52.184Z,100784.03
2023-10-23T00:41:54.927Z,100785.28
2023-10-23T00:44:57.564Z,100782.78
2023-10-23T00:48:00.359Z,100786.09
2023-10-23T00:51:04.514Z,100783.06
2023-10-23T00:54:07.830Z,100776.53
2023-10-23T00:57:10.657Z,100775.31
2023-10-23T01:00:14.866Z,100783.66
2023-10-23T01:03:18.162Z,100785.13
2023-10-23T01:06:21.756Z,100786.78
2023-10-23T01:09:24.615Z,100785.78
2023-10-23T01:12:27.314Z,100779.69
2023-10-23T01:15:30.093Z,100781.56
2023-10-23T01:18:32.899Z,100785.66
2023-10-23T01:21:35.563Z,100778.53
2023-10-23T01:24:42.723Z,100786.69
2023-10-23T01:27:45.370Z,100784.66
2023-10-23T01:30:48.780Z,100787.94
2023-10-23T01:33:53.174Z,100785.13
2023-10-23T01:36:56.063Z,100781.00
2023-10-23T01:39:58.786Z,100782.84
2023-10-23T01:43:01.528Z,100775.31
2023-10-23T01:46:04.287Z,100771.44
2023-10-23T01:49:06.953Z,100778.81
2023-10-23T01:52:09.750Z,100777.56
2023-10-23T01:55:12.486Z,100783.47
2023-10-23T01:58:15.116Z,100783.03
2023-10-23T02:01:25.910Z,100782.81
2023-10-23T02:04:29.874Z,100785.88
2023-10-23T02:07:32.686Z,100785.69
2023-10-23T02:10:35.301Z,100784.63
2023-10-23T02:13:38.430Z,100779.13
2023-10-23T02:16:41.187Z,100784.88
2023-10-23T02:19:44.060Z,100778.53
2023-10-23T02:22:46.694Z,100774.66
2023-10-23T02:25:49.355Z,100781.81
2023-10-23T02:28:52.448Z,100789.59
2023-10-23T02:31:55.280Z,100792.69
2023-10-23T02:34:58.096Z,100785.34
2023-10-23T02:38:00.910Z,100783.72
2023-10-23T02:41:03.590Z,100784.53
2023-10-23T02:44:06.908Z,100785.16
2023-10-23T02:47:09.574Z,100789.66
2023-10-23T02:50:12.372Z,100785.78
2023-10-23T02:53:15.146Z,100784.75
2023-10-23T02:56:17.733Z,100783.94
2023-10-23T02:59:22.173Z,100781.06
2023-10-23T03:02:25.019Z,100786.41
2023-10-23T03:05:27.762Z,100793.75
2023-10-23T03:08:30.430Z,100790.69
2023-10-23T03:11:33.247Z,100802.72
2023-10-23T03:14:35.931Z,100803.53
2023-10-23T03:17:38.702Z,100788.25
2023-10-23T03:20:42.060Z,100791.50
2023-10-23T03:23:44.887Z,100793.75
2023-10-23T03:26:47.566Z,100794.34
2023-10-23T03:29:50.237Z,100801.91
2023-10-23T03:32:53.057Z,100797.78
2023-10-23T03:35:56.556Z,100805.06
2023-10-23T03:38:59.184Z,100805.06
2023-10-23T03:42:03.746Z,100811.19
2023-10-23T03:45:07.699Z,100805.25
2023-10-23T03:48:10.387Z,100809.09
2023-10-23T03:51:13.160Z,100808.84
2023-10-23T03:54:15.831Z,100808.63
2023-10-23T03:57:18.439Z,100814.94
2023-10-23T04:00:21.179Z,100810.06
2023-10-23T04:03:23.961Z,100821.84
2023-10-23T04:06:26.739Z,100813.69
2023-10-23T04:09:32.802Z,100811.22
2023-10-23T04:12:35.981Z,100814.28
2023-10-23T04:15:38.736Z,100820.78
2023-10-23T04:18:41.450Z,100823.00
2023-10-23T04:21:44.179Z,100834.63
2023-10-23T04:24:48.568Z,100837.94
2023-10-23T04:27:51.320Z,100830.59
2023-10-23T04:30:54.322Z,100826.28
2023-10-23T04:33:57.092Z,100825.09
2023-10-23T04:36:59.797Z,100834.66
2023-10-23T04:40:02.584Z,100832.22
2023-10-23T04:43:05.549Z,100830.91
2023-10-23T04:46:08.367Z,100823.94
2023-10-23T04:49:11.059Z,100836.09
2023-10-23T04:52:13.680Z,100832.88
2023-10-23T04:55:16.494Z,100831.81
2023-10-23T04:58:19.246Z,100833.50
2023-10-23T05:01:23.545Z,100839.81
2023-10-23T05:04:26.415Z,100844.84
2023-10-23T05:07:29.143Z,100841.75
2023-10-23T05:10:32.043Z,100839.69
2023-10-23T05:13:34.819Z,100845.44
2023-10-23T05:16:37.641Z,100846.59
2023-10-23T05:19:40.640Z,100846.41
2023-10-23T05:22:43.467Z,100854.53
2023-10-23T05:25:48.946Z,100863.06
2023-10-23T05:28:52.921Z,100862.66
2023-10-23T05:31:55.703Z,100872.81
2023-10-23T05:34:58.502Z,100878.38
2023-10-23T05:38:01.309Z,100885.75
2023-10-23T05:41:04.338Z,100894.75
2023-10-23T05:44:07.044Z,100896.22
2023-10-23T05:47:09.829Z,100886.25
2023-10-23T05:50:12.480Z,100893.66
2023-10-23T05:53:15.188Z,100895.72
2023-10-23T05:56:17.901Z,100890.66
2023-10-23T05:59:20.685Z,100898.63
2023-10-23T06:02:23.341Z,100903.97
2023-10-23T06:05:25.951Z,100898.31
2023-10-23T06:08:28.673Z,100898.34
2023-10-23T06:11:32.236Z,100900.03
2023-10-23T06:14:34.893Z,100898.66
2023-10-23T06:17:37.731Z,100902.56
2023-10-23T06:20:40.470Z,100908.97
2023-10-23T06:23:43.069Z,100896.34
2023-10-23T06:26:45.758Z,100903.31
2023-10-23T06:29:50.561Z,100904.56
2023-10-23T06:32:53.415Z,100911.78
2023-10-23T06:35:59.962Z,100907.25
2023-10-23T06:39:02.801Z,100907.44
2023-10-23T06:42:05.797Z,100904.59
2023-10-23T06:45:08.770Z,100904.50
2023-10-23T06:48:11.719Z,100919.13
2023-10-23T06:51:17.188Z,100906.91
2023-10-23T06:54:22.779Z,100908.50
2023-10-23T06:57:25.630Z,100899.41
2023-10-23T07:00:28.323Z,100895.63
2023-10-23T07:03:31.076Z,100892.41
2023-10-23T07:06:34.934Z,100889.25
2023-10-23T07:09:37.764Z,100886.00
2023-10-23T07:12:40.779Z,100890.72
2023-10-23T07:15:43.528Z,100878.25
2023-10-23T07:18:46.818Z,100889.28
2023-10-23T07:21:49.575Z,100881.81
2023-10-23T07:24:55.884Z,100881.66
2023-10-23T07:27:59.630Z,100877.88
2023-10-23T07:31:06.541Z,100878.06
2023-10-23T07:34:09.416Z,100878.97
2023-10-23T07:37:19.497Z,100893.88
2023-10-23T07:40:22.977Z,100888.28
2023-10-23T07:43:27.121Z,100892.13
2023-10-23T07:46:29.876Z,100894.41
2023-10-23T07:49:32.626Z,100889.94
2023-10-23T07:52:35.289Z,100896.97
2023-10-23T07:55:39.001Z,100893.22
2023-10-23T07:58:41.873Z,100899.56
2023-10-23T08:01:44.691Z,100905.56
2023-10-23T08:04:49.038Z,100896.72
2023-10-23T08:07:51.931Z,100899.63
2023-10-23T08:10:54.739Z,100912.94
2023-10-23T08:13:57.523Z,100914.03
2023-10-23T08:17:00.194Z,100921.03
2023-10-23T08:20:03.056Z,100911.84
2023-10-23T08:23:05.686Z,100912.03
2023-10-23T08:26:08.750Z,100907.50
2023-10-23T08:29:11.426Z,100909.94
2023-10-23T08:32:17.307Z,100911.50
2023-10-23T08:35:20.611Z,100916.31
2023-10-23T08:38:23.268Z,100908.25
2023-10-23T08:41:27.354Z,100895.78
2023-10-23T08:44:30.438Z,100903.97
2023-10-23T08:47:33.147Z,100896.59
2023-10-23T08:50:37.427Z,100888.75
2023-10-23T08:54:02.721Z,100885.22
2023-10-23T08:57:12.910Z,100885.06
2023-10-23T09:00:39.984Z,100875.78
2023-10-23T09:04:02.347Z,100875.75
2023-10-23T09:07:05.484Z,100881.56
2023-10-23T09:10:08.616Z,100889.31
2023-10-23T09:13:11.367Z,100892.22
2023-10-23T09:16:14.407Z,100888.88
2023-10-23T09:19:40.283Z,100892.78
2023-10-23T09:22:49.901Z,100903.69
2023-10-23T09:25:59.110Z,100887.91
2023-10-23T09:29:01.887Z,100884.06
2023-10-23T09:32:10.594Z,100882.25
2023-10-23T09:35:16.082Z,100890.88
2023-10-23T09:38:19.599Z,100899.66
2023-10-23T09:41:22.601Z,100894.53
2023-10-23T09:44:28.082Z,100893.38
2023-10-23T09:47:31.081Z,100897.63
2023-10-23T09:50:35.304Z,100883.94
2023-10-23T09:53:39.078Z,100887.19
2023-10-23T09:56:48.720Z,100903.69
2023-10-23T10:00:00.952Z,100885.09
2023-10-23T10:03:09.792Z,100896.28
2023-10-23T10:06:15.192Z,100880.34
2023-10-23T10:09:18.451Z,100886.84
2023-10-23T10:12:22.456Z,100880.59
2023-10-23T10:15:25.799Z,100877.63
2023-10-23T10:18:30.536Z,100878.44
2023-10-23T10:21:42.235Z,100864.28
2023-10-23T10:24:46.506Z,100863.44
2023-10-23T10:27:59.174Z,100853.78
2023-10-23T10:31:01.985Z,100852.53
2023-10-23T10:34:27.875Z,100851.91
2023-10-23T10:37:32.915Z,100836.22
2023-10-23T10:41:02.768Z,100827.00
2023-10-23T10:44:11.391Z,100822.72
2023-10-23T10:47:17.003Z,100827.28
2023-10-23T10:50:42.429Z,100816.41
2023-10-23T10:53:47.816Z,100820.03
2023-10-23T10:56:52.779Z,100822.59
2023-10-23T10:59:56.733Z,100824.69
2023-10-23T11:03:00.082Z,100820.47
2023-10-23T11:06:02.818Z,100814.97
2023-10-23T11:09:07.842Z,100818.38
2023-10-23T11:12:10.517Z,100814.56
2023-10-23T11:15:14.854Z,100818.84
2023-10-23T11:18:18.038Z,100815.09
2023-10-23T11:21:24.578Z,100821.53
2023-10-23T11:24:27.344Z,100819.81
2023-10-23T11:27:29.993Z,100821.69
2023-10-23T11:30:32.910Z,100825.72
2023-10-23T11:33:37.329Z,100823.75
2023-10-23T11:36:40.482Z,100818.28
2023-10-23T11:39:43.762Z,100813.59
2023-10-23T11:42:57.512Z,100817.00
2023-10-23T11:46:00.538Z,100811.25
2023-10-23T11:49:03.895Z,100802.91
2023-10-23T11:52:06.883Z,100799.09
2023-10-23T11:55:12.090Z,100797.47
2023-10-23T11:58:14.814Z,100784.94
2023-10-23T12:01:17.521Z,100777.00
2023-10-23T12:04:20.383Z,100774.97
2023-10-23T12:07:23.085Z,100773.75
2023-10-23T12:10:27.703Z,100773.81
2023-10-23T12:13:30.525Z,100766.72
2023-10-23T12:16:33.769Z,100767.97
2023-10-23T12:19:36.870Z,100760.06
2023-10-23T12:22:44.073Z,100763.25
2023-10-23T12:25:46.753Z,100765.84
2023-10-23T12:28:49.387Z,100757.88
2023-10-23T12:32:01.721Z,100748.56
2023-10-23T12:35:05.700Z,100750.59
2023-10-23T12:38:08.599Z,100756.53
2023-10-23T12:41:11.302Z,100749.72
2023-10-23T12:44:14.027Z,100747.00
2023-10-23T12:47:17.365Z,100745.34
2023-10-23T12:50:20.427Z,100747.72
2023-10-23T12:53:23.611Z,100748.66
2023-10-23T12:56:26.849Z,100748.50
2023-10-23T12:59:34.599Z,100749.38
2023-10-23T13:02:38.058Z,100748.47
2023-10-23T13:05:40.807Z,100747.56
2023-10-23T13:08:44.501Z,100743.47
2023-10-23T13:11:47.665Z,100740.91
2023-10-23T13:14:50.525Z,100733.66
2023-10-23T13:17:57.406Z,100742.25
2023-10-23T13:21:32.049Z,100743.38
2023-10-23T13:24:23.080Z,100728.78
2023-10-23T13:27:25.859Z,100733.75
2023-10-23T13:30:28.562Z,100730.00
2023-10-23T13:33:31.227Z,100732.81
2023-10-23T13:36:33.903Z,100724.72
2023-10-23T13:39:36.618Z,100726.69
2023-10-23T13:42:39.259Z,100725.03
2023-10-23T13:45:41.962Z,100734.34
2023-10-23T13:49:04.380Z,100734.78
2023-10-23T13:52:10.882Z,100732.88
2023-10-23T13:55:13.623Z,100730.50
2023-10-23T13:58:16.530Z,100721.34
2023-10-23T14:01:19.678Z,100718.81
2023-10-23T14:04:22.643Z,100714.09
2023-10-23T14:07:25.505Z,100708.31
2023-10-23T14:10:29.603Z,100708.91
2023-10-23T14:13:32.315Z,100694.09
2023-10-23T14:16:35.108Z,100698.91
2023-10-23T14:19:46.813Z,100693.63
2023-10-23T14:22:50.837Z,100690.25
2023-10-23T14:25:53.428Z,100690.81
2023-10-23T14:29:09.257Z,100689.06
2023-10-23T14:32:12.444Z,100688.47
2023-10-23T14:35:15.379Z,100677.84
2023-10-23T14:38:24.878Z,100673.81
2023-10-23T14:41:27.677Z,100675.31
2023-10-23T14:44:30.993Z,100668.75
2023-10-23T14:47:33.945Z,100685.75
2023-10-23T14:50:39.467Z,100688.72
2023-10-23T14:53:42.075Z,100678.78
2023-10-23T14:56:45.886Z,100677.00
2023-10-23T14:59:48.547Z,100666.34
2023-10-23T15:02:51.178Z,100660.69
2023-10-23T15:05:54.559Z,100665.25
2023-10-23T15:08:59.107Z,100664.78
2023-10-23T15:12:01.798Z,100670.59
2023-10-23T15:15:04.886Z,100662.06
2023-10-23T15:18:17.135Z,100660.28
2023-10-23T15:21:19.975Z,100655.72
2023-10-23T15:24:22.997Z,100662.41
2023-10-23T15:27:25.641Z,100668.09
2023-10-23T15:30:28.334Z,100662.91
2023-10-23T15:33:32.145Z,100672.00
2023-10-23T15:36:35.116Z,100673.59
2023-10-23T15:39:41.891Z,100669.25
2023-10-23T15:42:44.534Z,100672.44
2023-10-23T15:45:51.220Z,100671.88
2023-10-23T15:48:54.248Z,100666.16
2023-10-23T15:51:57.383Z,100678.19
2023-10-23T15:55:00.044Z,100673.25
2023-10-23T15:58:04.694Z,100676.66
2023-10-23T16:01:08.307Z,100673.59
2023-10-23T16:04:12.424Z,100670.31
2023-10-23T16:07:15.082Z,100663.31
2023-10-23T16:10:17.849Z,100666.41
2023-10-23T16:13:20.699Z,100671.41
2023-10-23T16:16:23.449Z,100678.84
2023-10-23T16:19:26.476Z,100677.44
2023-10-23T16:22:29.272Z,100676.03
2023-10-23T16:25:35.071Z,100683.75
2023-10-23T16:28:37.919Z,100679.28
2023-10-23T16:31:40.769Z,100679.19
2023-10-23T16:34:43.801Z,100680.19
2023-10-23T16:37:46.884Z,100678.31
2023-10-23T16:40:49.590Z,100683.19
2023-10-23T16:43:52.222Z,100679.13
2023-10-23T16:46:55.242Z,100689.53
2023-10-23T16:49:58.007Z,100682.75
2023-10-23T16:53:02.960Z,100681.81
2023-10-23T16:56:09.281Z,100682.56
2023-10-23T16:59:13.612Z,100686.50
2023-10-23T17:02:16.407Z,100683.94
2023-10-23T17:05:19.206Z,100677.38
2023-10-23T17:08:21.859Z,100670.09
2023-10-23T17:11:24.534Z,100679.84
2023-10-23T17:14:27.334Z,100675.03
2023-10-23T17:17:31.721Z,100676.44
2023-10-23T17:20:39.859Z,100673.38
2023-10-23T17:23:42.605Z,100675.88
2023-10-23T17:26:45.516Z,100674.50
2023-10-23T17:29:48.233Z,100673.28
2023-10-23T17:32:51.717Z,100670.53
2023-10-23T17:35:55.444Z,100673.53
2023-10-23T17:38:59.146Z,100666.97
2023-10-23T17:42:03.164Z,100671.00
2023-10-23T17:45:06.727Z,100661.16
2023-10-23T17:48:09.659Z,100658.66
2023-10-23T17:51:16.717Z,100659.84
2023-10-23T17:54:20.426Z,100661.47
2023-10-23T17:57:27.390Z,100663.03
2023-10-23T18:00:30.346Z,100657.91
2023-10-23T18:03:33.304Z,100659.78
2023-10-23T18:06:36.134Z,100654.66
2023-10-23T18:09:40.226Z,100649.06
2023-10-23T18:12:43.193Z,100646.19
2023-10-23T18:15:45.991Z,100643.50
2023-10-23T18:18:48.624Z,100645.03
2023-10-23T18:21:51.602Z,100641.44
2023-10-23T18:24:56.100Z,100645.63
2023-10-23T18:27:59.255Z,100646.28
2023-10-23T18:31:02.028Z,100652.81
2023-10-23T18:34:05.142Z,100648.97
2023-10-23T18:37:08.169Z,100649.56
2023-10-23T18:40:11.297Z,100648.34
2023-10-23T18:43:14.138Z,100648.06
2023-10-23T18:46:17.262Z,100655.88
2023-10-23T18:49:20.560Z,100656.78
2023-10-23T18:52:23.602Z,100660.56
2023-10-23T18:55:26.356Z,100655.22
2023-10-23T18:58:29.268Z,100656.63
2023-10-23T19:01:31.981Z,100646.63
2023-10-23T19:04:34.763Z,100646.16
2023-10-23T19:07:37.535Z,100643.09
2023-10-23T19:10:40.677Z,100640.81
2023-10-23T19:13:43.437Z,100647.88
2023-10-23T19:16:46.583Z,100646.47
2023-10-23T19:19:49.281Z,100650.91
2023-10-23T19:22:52.127Z,100645.44
2023-10-23T19:25:55.348Z,100642.88
2023-10-23T19:28:58.080Z,100638.44
2023-10-23T19:32:01.072Z,100648.19
2023-10-23T19:35:04.103Z,100634.72
2023-10-23T19:38:07.298Z,100633.91
2023-10-23T19:41:17.751Z,100630.34
2023-10-23T19:44:21.104Z,100629.38
2023-10-23T19:47:24.297Z,100633.31
2023-10-23T19:50:27.987Z,100630.06
2023-10-23T19:53:30.901Z,100630.19
2023-10-23T19:56:44.671Z,100633.31
2023-10-23T19:59:47.478Z,100635.72
2023-10-23T20:02:51.749Z,100633.44
2023-10-23T20:05:56.090Z,100635.97
2023-10-23T20:08:58.998Z,100630.75
2023-10-23T20:12:01.674Z,100622.00
2023-10-23T20:15:05.582Z,100630.00
2023-10-23T20:18:11.396Z,100637.66
2023-10-23T20:21:15.423Z,100633.44
2023-10-23T20:24:18.190Z,100624.88
2023-10-23T20:27:21.044Z,100627.75
2023-10-23T20:30:23.811Z,100621.03
2023-10-23T20:33:26.610Z,100625.41
2023-10-23T20:36:29.253Z,100626.59
2023-10-23T20:39:31.878Z,100621.94
2023-10-23T20:42:35.593Z,100625.19
2023-10-23T20:45:39.076Z,100626.94
2023-10-23T20:48:41.784Z,100629.50
2023-10-23T20:51:44.534Z,100627.75
2023-10-23T20:54:47.314Z,100623.59
2023-10-23T20:57:49.979Z,100628.56
2023-10-23T21:00:52.719Z,100633.56
2023-10-23T21:03:55.891Z,100639.41
2023-10-23T21:06:58.540Z,100637.00
2023-10-23T21:10:01.307Z,100639.03
2023-10-23T21:13:04.105Z,100620.03
2023-10-23T21:16:08.183Z,100616.34
2023-10-23T21:19:10.900Z,100620.03
2023-10-23T21:22:13.607Z,100624.78
2023-10-23T21:25:16.870Z,100610.66
2023-10-23T21:28:27.009Z,100604.81
2023-10-23T21:31:29.911Z,100607.53
2023-10-23T21:34:32.640Z,100609.03
2023-10-23T21:37:35.421Z,100608.66
2023-10-23T21:40:38.155Z,100599.50
2023-10-23T21:43:40.998Z,100590.13
2023-10-23T21:46:43.892Z,100592.91
2023-10-23T21:49:47.182Z,100596.28
2023-10-23T21:52:50.249Z,100582.59
2023-10-23T21:55:53.102Z,100589.88
2023-10-23T21:59:02.694Z,100583.38
2023-10-23T22:02:13.462Z,100582.63
2023-10-23T22:05:16.304Z,100581.97
2023-10-23T22:08:19.286Z,100572.25
2023-10-23T22:11:22.242Z,100567.03
2023-10-23T22:14:25.199Z,100575.47
2023-10-23T22:17:27.939Z,100577.31
2023-10-23T22:20:30.767Z,100552.38
2023-10-23T22:23:33.491Z,100557.34
2023-10-23T22:26:36.206Z,100546.59
2023-10-23T22:29:38.938Z,100540.66
2023-10-23T22:32:41.808Z,100539.72
2023-10-23T22:35:44.555Z,100537.94
2023-10-23T22:38:47.246Z,100560.91
2023-10-23T22:41:50.034Z,100554.63
2023-10-23T22:44:52.832Z,100550.34
2023-10-23T22:47:55.476Z,100544.06
2023-10-23T22:50:58.785Z,100549.22
2023-10-23T22:54:01.573Z,100537.19
2023-10-23T22:57:06.347Z,100539.56
2023-10-23T23:00:11.437Z,100542.28
2023-10-23T23:03:14.443Z,100536.50
2023-10-23T23:06:20.308Z,100537.72
2023-10-23T23:09:23.340Z,100543.13
2023-10-23T23:12:26.322Z,100548.88
2023-10-23T23:15:29.537Z,100547.47
2023-10-23T23:18:33.802Z,100547.97
2023-10-23T23:21:42.813Z,100546.38
2023-10-23T23:24:45.445Z,100540.69
2023-10-23T23:27:48.047Z,100549.91
2023-10-23T23:30:50.802Z,100546.88
2023-10-23T23:33:53.616Z,100544.28
2023-10-23T23:36:56.843Z,100534.09
2023-10-23T23:39:59.459Z,100527.50
2023-10-23T23:43:02.085Z,100530.81
2023-10-23T23:46:04.948Z,100531.66
2023-10-23T23:49:07.783Z,100525.66
2023-10-23T23:52:10.582Z,100513.41
2023-10-23T23:55:13.680Z,100523.28
2023-10-23T23:58:16.476Z,100520.06
